createdAt,value
2024-04-06T00:07:54.682Z,12.2
2024-04-06T00:17:50.153Z,12.1
2024-04-06T00:27:49.386Z,12.8
2024-04-06T00:37:48.579Z,12.4
2024-04-06T00:47:47.807Z,11.9
2024-04-06T00:57:47.021Z,12.2
2024-04-06T01:07:46.231Z,11.9
2024-04-06T01:17:45.422Z,11.8
2024-04-06T01:27:44.644Z,11.8
2024-04-06T01:37:43.842Z,11.7
2024-04-06T01:47:43.069Z,11.9
2024-04-06T01:57:42.265Z,11.8
2024-04-06T02:07:41.485Z,11.5
2024-04-06T02:17:40.697Z,11.6
2024-04-06T02:27:39.907Z,11.4
2024-04-06T02:37:39.103Z,11.3
2024-04-06T02:47:38.378Z,11.4
2024-04-06T02:57:37.527Z,11.2
2024-04-06T03:08:04.606Z,10.9
2024-04-06T03:18:03.804Z,10.8
2024-04-06T03:28:03.025Z,10.4
2024-04-06T03:38:02.221Z,10.2
2024-04-06T03:48:01.442Z,10.4
2024-04-06T03:58:00.647Z,10.4
2024-04-06T04:07:59.876Z,10.4
2024-04-06T04:17:59.147Z,11.1
2024-04-06T04:27:58.439Z,11.8
2024-04-06T04:37:57.704Z,12
2024-04-06T04:47:57.000Z,13.3
2024-04-06T04:57:56.258Z,14.1
2024-04-06T05:07:55.490Z,14.8
2024-04-06T05:17:54.687Z,15.3
2024-04-06T05:27:53.901Z,15.9
2024-04-06T05:37:53.093Z,16.8
2024-04-06T05:47:52.339Z,17.8
2024-04-06T05:57:51.510Z,18.4
2024-04-06T06:07:50.735Z,18.9
2024-04-06T06:17:49.932Z,18.1
2024-04-06T06:27:49.164Z,18.6
2024-04-06T06:47:47.588Z,20.3
2024-04-06T06:57:46.782Z,21.3
2024-04-06T07:07:46.014Z,23.3
2024-04-06T07:17:46.168Z,24.6
2024-04-06T07:27:45.393Z,26.9
2024-04-06T07:37:44.593Z,27.8
2024-04-06T07:47:43.824Z,30.5
2024-04-06T07:57:43.029Z,29.6
2024-04-06T08:07:42.242Z,32.6
2024-04-06T08:17:41.450Z,33.7
2024-04-06T08:27:40.673Z,35.3
2024-04-06T08:37:39.947Z,36.2
2024-04-06T08:47:39.170Z,32.5
2024-04-06T08:57:38.370Z,37
2024-04-06T09:08:04.775Z,42.7
2024-04-06T09:18:03.972Z,44.3
2024-04-06T09:28:03.195Z,44.7
2024-04-06T09:38:02.399Z,41.5
2024-04-06T09:48:01.646Z,35.2
2024-04-06T09:58:00.816Z,35.3
2024-04-06T10:08:00.160Z,33.6
2024-04-06T10:17:59.325Z,33.8
2024-04-06T10:27:58.602Z,34.3
2024-04-06T10:37:57.871Z,33.1
2024-04-06T10:47:57.163Z,33.6
2024-04-06T10:57:56.438Z,32.1
2024-04-06T11:07:55.715Z,31.1
2024-04-06T11:17:54.850Z,30.9
2024-04-06T11:27:54.076Z,30.7
2024-04-06T11:37:53.282Z,30.1
2024-04-06T11:47:52.499Z,29.6
2024-04-06T11:57:51.690Z,28.8
2024-04-06T12:07:50.913Z,28.8
2024-04-06T12:17:50.109Z,28.8
2024-04-06T12:27:49.332Z,28.6
2024-04-06T12:37:48.539Z,28.3
2024-04-06T12:47:47.756Z,28
2024-04-06T12:57:46.947Z,27.2
2024-04-06T13:07:48.752Z,27
2024-04-06T13:17:45.365Z,26.9
2024-04-06T13:27:44.600Z,26.6
2024-04-06T13:37:43.781Z,26.2
2024-04-06T13:47:43.010Z,26.1
2024-04-06T13:57:42.202Z,25.9
2024-04-06T14:07:41.431Z,25.5
2024-04-06T14:17:40.627Z,25.4
2024-04-06T14:27:39.848Z,25.2
2024-04-06T14:37:39.039Z,24.9
2024-04-06T14:47:38.267Z,24.6
2024-04-06T14:57:37.464Z,24.3
2024-04-06T15:08:03.943Z,24.3
2024-04-06T15:18:03.130Z,24
2024-04-06T15:28:02.354Z,23.8
2024-04-06T15:38:01.548Z,23.8
2024-04-06T15:48:00.788Z,23.7
2024-04-06T15:57:59.974Z,23.4
2024-04-06T16:07:59.220Z,23
2024-04-06T16:17:58.477Z,22.9
2024-04-06T16:27:57.774Z,22.5
2024-04-06T16:37:57.072Z,22.3
2024-04-06T16:47:56.335Z,21.9
2024-04-06T16:57:57.031Z,21.7
2024-04-06T17:07:56.256Z,21.4
2024-04-06T17:17:55.454Z,21.1
2024-04-06T17:27:54.688Z,20.9
2024-04-06T17:37:53.875Z,20.7
2024-04-06T17:47:53.097Z,20.5
2024-04-06T17:57:52.288Z,20.3
2024-04-06T18:07:51.511Z,20.4
2024-04-06T18:17:50.711Z,20.2
2024-04-06T18:27:49.935Z,19.8
2024-04-06T18:37:49.127Z,19.7
2024-04-06T18:47:48.358Z,19.4
2024-04-06T18:57:47.551Z,19.6
2024-04-06T19:07:46.825Z,19.6
2024-04-06T19:17:45.972Z,19.4
2024-04-06T19:27:45.205Z,19.1
2024-04-06T19:37:44.397Z,19.2
2024-04-06T19:47:43.630Z,18.9
2024-04-06T19:57:42.830Z,18.9
2024-04-06T20:07:42.050Z,19
2024-04-06T20:17:41.257Z,19.1
2024-04-06T20:27:40.476Z,19.1
2024-04-06T20:37:39.683Z,19.1
2024-04-06T20:47:38.898Z,19.2
2024-04-06T20:57:38.096Z,19.3
2024-04-06T21:08:04.113Z,19.1
2024-04-06T21:18:03.314Z,19.1
2024-04-06T21:28:02.538Z,19.1
2024-04-06T21:38:01.729Z,19
2024-04-06T21:48:00.963Z,19
2024-04-06T21:58:00.154Z,19.1
2024-04-06T22:07:59.399Z,19
2024-04-06T22:17:58.656Z,18.8
2024-04-06T22:27:57.953Z,18.6
2024-04-06T22:37:57.223Z,18.8
2024-04-06T22:47:56.510Z,18.8
2024-04-06T22:57:55.781Z,18.6
2024-04-06T23:07:55.016Z,18.6
2024-04-06T23:17:54.201Z,18.6
2024-04-06T23:27:53.438Z,18.6
2024-04-06T23:37:52.625Z,18.8
2024-04-06T23:47:51.848Z,18.9
2024-04-06T23:57:51.052Z,18.8
